Time;durP1;ratioP1;P1;durP2;ratioP2;P2;SDS_P1;SDS_P2;PMS_P1;PMS_P2;Temp;Humidity;BMP_temperature;BMP_pressure;BME280_temperature;BME280_humidity;BME280_pressure;Samples;Min_cycle;Max_cycle;Signal;HPM_P1;HPM_P2
2023/01/02 00:01:37;;;;;;;20.05;5.53;;;8.70;99.90;;;;;;5013037;28;20474;-82
2023/01/02 00:04:03;;;;;;;24.48;5.07;;;8.60;99.90;;;;;;5013011;28;20050;-82
2023/01/02 00:06:33;;;;;;;20.08;6.38;;;8.70;99.90;;;;;;5013015;28;20053;-82
2023/01/02 00:08:59;;;;;;;21.83;6.43;;;8.60;99.90;;;;;;5014466;28;20045;-82
2023/01/02 00:11:24;;;;;;;23.35;6.32;;;8.70;99.90;;;;;;5014279;28;20038;-82
2023/01/02 00:13:50;;;;;;;24.17;5.25;;;8.60;99.90;;;;;;5013874;28;20445;-82
2023/01/02 00:16:16;;;;;;;20.77;6.45;;;8.70;99.90;;;;;;5014465;28;20477;-82
2023/01/02 00:18:41;;;;;;;21.90;6.05;;;8.70;99.90;;;;;;5014066;28;20042;-82
2023/01/02 00:21:07;;;;;;;18.70;5.00;;;8.60;99.90;;;;;;5014213;28;20038;-83
2023/01/02 00:23:33;;;;;;;23.90;5.75;;;8.60;99.90;;;;;;5014089;28;20389;-82
2023/01/02 00:25:58;;;;;;;16.58;5.03;;;8.60;99.90;;;;;;5012753;28;20136;-82
2023/01/02 00:28:24;;;;;;;17.63;5.40;;;8.70;99.90;;;;;;5014093;28;20046;-83
2023/01/02 00:30:50;;;;;;;20.38;5.78;;;8.60;99.90;;;;;;5012689;28;20401;-83
2023/01/02 00:33:16;;;;;;;21.73;6.45;;;8.60;99.90;;;;;;5012833;28;20046;-83
2023/01/02 00:35:42;;;;;;;23.70;5.93;;;8.60;99.90;;;;;;5013901;28;20049;-82
2023/01/02 00:38:07;;;;;;;21.95;6.53;;;8.70;99.90;;;;;;5012714;28;20042;-82
2023/01/02 00:40:36;;;;;;;25.65;7.22;;;8.60;99.90;;;;;;5012934;28;20046;-82
2023/01/02 00:43:03;;;;;;;23.08;7.10;;;8.60;99.90;;;;;;5013664;28;20529;-83
2023/01/02 00:45:28;;;;;;;18.63;6.43;;;8.60;99.90;;;;;;5014027;28;20049;-83
2023/01/02 00:47:54;;;;;;;22.77;6.95;;;8.50;99.90;;;;;;5013868;28;20044;-82
2023/01/02 00:50:20;;;;;;;23.95;6.78;;;8.70;99.90;;;;;;5012525;28;20402;-82
2023/01/02 00:52:46;;;;;;;23.38;6.68;;;8.60;99.90;;;;;;5012829;28;20049;-83
2023/01/02 00:55:11;;;;;;;21.35;6.15;;;8.70;99.90;;;;;;5016590;28;20045;-82
2023/01/02 00:57:37;;;;;;;22.38;6.90;;;8.70;99.90;;;;;;5016731;28;20057;-83
2023/01/02 01:00:04;;;;;;;17.77;6.63;;;8.70;99.90;;;;;;5017618;28;20386;-83
2023/01/02 01:02:30;;;;;;;22.65;6.80;;;8.70;99.90;;;;;;5016739;28;20486;-83
2023/01/02 01:04:56;;;;;;;20.05;7.28;;;8.70;99.90;;;;;;5016386;28;20108;-83
2023/01/02 01:07:21;;;;;;;20.10;7.13;;;8.60;99.90;;;;;;5016530;28;20103;-82
2023/01/02 01:09:47;;;;;;;19.23;7.88;;;8.70;99.90;;;;;;5017645;28;20486;-82
2023/01/02 01:12:13;;;;;;;20.17;6.68;;;8.80;99.90;;;;;;5016144;28;20050;-82
2023/01/02 01:14:38;;;;;;;21.10;6.95;;;8.70;99.90;;;;;;5015980;28;20058;-82
2023/01/02 01:17:04;;;;;;;23.90;6.10;;;8.70;99.90;;;;;;5016118;28;20049;-82
2023/01/02 01:19:32;;;;;;;17.17;5.88;;;8.70;99.90;;;;;;5017384;28;20085;-82
2023/01/02 01:21:57;;;;;;;15.25;6.00;;;8.60;99.90;;;;;;5015958;28;20096;-82
2023/01/02 01:24:23;;;;;;;19.65;6.32;;;8.70;99.90;;;;;;5016313;28;20074;-82
2023/01/02 01:26:49;;;;;;;16.60;4.82;;;8.70;99.90;;;;;;5017266;28;20046;-82
2023/01/02 01:29:14;;;;;;;18.00;6.18;;;8.70;99.90;;;;;;5017058;28;20390;-82
2023/01/02 01:31:40;;;;;;;17.40;5.35;;;8.60;99.90;;;;;;5017244;28;20050;-82
2023/01/02 01:34:06;;;;;;;17.98;5.78;;;8.60;99.90;;;;;;5017112;28;20045;-82
2023/01/02 01:36:31;;;;;;;15.65;5.03;;;8.60;99.90;;;;;;5016160;28;20053;-82
2023/01/02 01:38:57;;;;;;;19.85;6.03;;;8.70;99.90;;;;;;5017036;28;20038;-82
2023/01/02 01:41:24;;;;;;;15.68;5.00;;;8.80;99.90;;;;;;5015646;28;20081;-81
2023/01/02 01:43:52;;;;;;;14.27;5.53;;;8.70;99.90;;;;;;5015907;28;20046;-82
2023/01/02 01:46:33;;;;;;;19.70;5.97;;;8.70;99.90;;;;;;5015495;28;20061;-81
2023/01/02 01:49:25;;;;;;;16.35;5.53;;;8.80;99.90;;;;;;5015975;28;20042;-81
2023/01/02 01:51:53;;;;;;;18.63;6.47;;;8.80;99.90;;;;;;5007462;28;20103;-81
2023/01/02 01:54:26;;;;;;;18.38;6.53;;;8.80;99.90;;;;;;5015485;28;20042;-81
2023/01/02 01:56:54;;;;;;;;;;;8.80;99.90;;;;;;5015946;28;20049;-82
2023/01/02 01:59:20;;;;;;;20.73;7.65;;;8.90;99.90;;;;;;5015562;28;19971;-82
2023/01/02 02:01:48;;;;;;;17.77;7.00;;;8.90;99.90;;;;;;5015486;28;20042;-81
2023/01/02 02:04:15;;;;;;;22.13;7.70;;;8.90;99.90;;;;;;5015823;28;20359;-81
2023/01/02 02:06:41;;;;;;;21.85;8.60;;;9.00;99.90;;;;;;5014642;28;20050;-82
2023/01/02 02:09:17;;;;;;;27.52;9.95;;;9.00;99.90;;;;;;5016713;28;20053;-81
2023/01/02 02:11:44;;;;;;;27.65;9.80;;;8.90;99.90;;;;;;5016463;28;20077;-81
2023/01/02 02:14:09;;;;;;;29.75;10.60;;;9.00;99.90;;;;;;5016064;28;20058;-81
2023/01/02 02:16:49;;;;;;;30.92;11.20;;;9.10;99.90;;;;;;5015151;28;20057;-81
2023/01/02 02:19:52;;;;;;;27.80;10.48;;;9.10;99.90;;;;;;5015273;28;20489;-81
2023/01/02 02:22:55;;;;;;;31.38;11.07;;;9.20;99.90;;;;;;5015061;28;20046;-81
2023/01/02 02:25:29;;;;;;;28.48;11.07;;;9.10;99.90;;;;;;5015007;28;20092;-81
2023/01/02 02:28:16;;;;;;;28.27;11.52;;;9.20;99.90;;;;;;5014884;28;20085;-81
2023/01/02 02:31:08;;;;;;;25.33;10.98;;;9.30;99.90;;;;;;5034290;28;20055;-81
2023/01/02 02:34:06;;;;;;;29.27;10.85;;;9.30;99.90;;;;;;5034769;28;20053;-81
2023/01/02 02:36:55;;;;;;;28.85;11.00;;;9.40;99.90;;;;;;5035688;28;20049;-81
2023/01/02 02:39:43;;;;;;;29.50;11.50;;;9.40;99.90;;;;;;5034495;28;20057;-81
2023/01/02 02:42:20;;;;;;;33.95;11.82;;;9.30;99.90;;;;;;5035573;28;20057;-81
2023/01/02 02:45:05;;;;;;;34.20;11.82;;;9.40;99.90;;;;;;5034310;28;20045;-81
2023/01/02 02:47:39;;;;;;;32.85;13.00;;;9.40;99.90;;;;;;5034593;28;20100;-81
2023/01/02 02:50:13;;;;;;;29.05;10.85;;;9.40;99.90;;;;;;5034416;28;20079;-81
2023/01/02 02:52:55;;;;;;;36.35;12.68;;;9.50;99.90;;;;;;5034407;28;20091;-81
2023/01/02 02:55:31;;;;;;;29.30;12.53;;;9.50;99.90;;;;;;5034424;28;20050;-82
2023/01/02 02:57:59;;;;;;;30.75;10.95;;;9.50;99.90;;;;;;5035376;28;20045;-82
2023/01/02 03:00:25;;;;;;;34.97;12.10;;;9.50;99.90;;;;;;5034351;28;20041;-81
2023/01/02 03:02:51;;;;;;;28.58;12.07;;;9.60;99.90;;;;;;5035115;28;20064;-81
2023/01/02 03:05:38;;;;;;;30.92;12.15;;;9.50;99.90;;;;;;5033842;28;20444;-81
2023/01/02 03:08:22;;;;;;;35.58;12.38;;;9.60;99.90;;;;;;5034095;28;20124;-81
2023/01/02 03:10:59;;;;;;;33.65;12.50;;;9.60;99.90;;;;;;5033898;28;20037;-81
2023/01/02 03:13:32;;;;;;;40.88;13.90;;;9.60;99.90;;;;;;5033714;28;20481;-81
2023/01/02 03:16:11;;;;;;;45.25;16.67;;;9.70;99.90;;;;;;5033798;28;20063;-81
2023/01/02 03:18:54;;;;;;;49.72;16.38;;;9.70;99.90;;;;;;5034200;28;20076;-81
2023/01/02 03:21:42;;;;;;;55.53;18.70;;;9.80;99.90;;;;;;5033537;28;20096;-81
2023/01/02 03:24:15;;;;;;;53.38;19.20;;;9.80;99.90;;;;;;5034926;28;20038;-81
2023/01/02 03:26:45;;;;;;;59.00;21.35;;;9.80;99.90;;;;;;5033631;28;20049;-81
2023/01/02 03:29:33;;;;;;;65.68;22.80;;;9.80;99.90;;;;;;5033741;28;20073;-81
2023/01/02 03:32:00;;;;;;;63.63;22.83;;;9.80;99.90;;;;;;5033352;28;20046;-81
2023/01/02 03:34:30;;;;;;;79.43;27.40;;;9.80;99.90;;;;;;5033512;28;20481;-81
2023/01/02 03:37:02;;;;;;;103.65;29.80;;;9.80;99.90;;;;;;5033351;28;20107;-81
2023/01/02 03:39:31;;;;;;;99.95;30.23;;;9.90;99.90;;;;;;5034228;28;20045;-81
2023/01/02 03:42:23;;;;;;;98.78;31.92;;;10.00;99.90;;;;;;5033301;28;20128;-81
2023/01/02 03:45:16;;;;;;;91.10;30.13;;;9.90;99.90;;;;;;5030496;28;20089;-81
2023/01/02 03:47:56;;;;;;;98.28;31.02;;;10.00;99.90;;;;;;5034560;28;20212;-81
2023/01/02 03:50:45;;;;;;;102.57;32.15;;;10.00;99.90;;;;;;5033232;28;20045;-81
2023/01/02 03:53:11;;;;;;;113.20;34.67;;;10.00;99.90;;;;;;5034603;28;20365;-81
2023/01/02 03:55:41;;;;;;;115.25;35.35;;;9.90;99.90;;;;;;5032976;28;20052;-81
2023/01/02 03:58:17;;;;;;;112.90;35.28;;;9.90;99.90;;;;;;5033108;28;20175;-81
2023/01/02 04:00:54;;;;;;;114.25;31.92;;;10.00;99.90;;;;;;5034244;28;20045;-81
2023/01/02 04:03:25;;;;;;;105.60;32.38;;;10.10;99.90;;;;;;5033211;28;20048;-81
2023/01/02 04:05:58;;;;;;;108.90;33.22;;;10.00;99.90;;;;;;5032942;28;20061;-81
2023/01/02 04:08:36;;;;;;;104.90;32.10;;;10.00;99.90;;;;;;5033949;28;20049;-81
2023/01/02 04:11:04;;;;;;;106.13;31.45;;;10.00;99.90;;;;;;5034032;28;20030;-81
2023/01/02 04:13:58;;;;;;;102.93;31.50;;;10.00;99.90;;;;;;5032642;28;20061;-81
2023/01/02 04:16:29;;;;;;;102.95;31.45;;;9.90;99.90;;;;;;5032687;28;20099;-81
2023/01/02 04:19:23;;;;;;;98.78;32.05;;;10.00;99.90;;;;;;5032972;28;20045;-81
2023/01/02 04:21:52;;;;;;;112.07;31.75;;;10.00;99.90;;;;;;5032800;28;20041;-81
2023/01/02 04:24:28;;;;;;;104.47;32.88;;;10.00;99.90;;;;;;5032410;28;20099;-81
2023/01/02 04:27:06;;;;;;;107.78;32.35;;;10.10;99.90;;;;;;5032436;28;20401;-81
2023/01/02 04:29:32;;;;;;;107.72;32.30;;;10.10;99.90;;;;;;5031999;28;20052;-81
2023/01/02 04:32:09;;;;;;;107.15;31.88;;;10.00;99.90;;;;;;5032730;28;20041;-81
2023/01/02 04:34:38;;;;;;;107.35;32.75;;;10.00;99.90;;;;;;5032339;28;20057;-81
2023/01/02 04:37:03;;;;;;;93.95;29.50;;;10.00;99.90;;;;;;5032279;28;20525;-81
2023/01/02 04:39:30;;;;;;;101.85;31.60;;;10.00;99.90;;;;;;5032412;28;20058;-81
2023/01/02 04:41:55;;;;;;;91.93;29.60;;;10.00;99.90;;;;;;5032405;28;20041;-80
2023/01/02 04:44:21;;;;;;;106.85;30.40;;;10.00;99.90;;;;;;5032297;28;20061;-81
2023/01/02 04:46:47;;;;;;;95.70;28.88;;;10.00;99.90;;;;;;5033323;28;20052;-81
2023/01/02 04:49:12;;;;;;;87.70;28.02;;;10.00;99.90;;;;;;5033585;28;20048;-81
2023/01/02 04:51:38;;;;;;;99.28;30.23;;;10.10;99.90;;;;;;5032228;28;20056;-81
2023/01/02 04:54:04;;;;;;;92.35;29.00;;;10.00;99.90;;;;;;5032190;28;20051;-81
2023/01/02 04:56:29;;;;;;;98.85;29.92;;;10.10;99.90;;;;;;5033517;28;20045;-81
2023/01/02 04:58:55;;;;;;;95.57;30.38;;;10.10;99.90;;;;;;5033432;28;20033;-81
2023/01/02 05:01:21;;;;;;;97.40;28.70;;;10.10;99.90;;;;;;5032260;28;20057;-81
2023/01/02 05:03:48;;;;;;;96.78;27.63;;;10.20;99.90;;;;;;5032371;28;20045;-81
2023/01/02 05:06:14;;;;;;;87.72;28.75;;;10.10;99.90;;;;;;5031958;28;20077;-81
2023/01/02 05:08:40;;;;;;;93.55;26.67;;;10.10;99.90;;;;;;5032350;28;20042;-81
2023/01/02 05:11:10;;;;;;;85.50;27.02;;;10.10;99.90;;;;;;5033457;28;20147;-82
2023/01/02 05:13:35;;;;;;;77.03;25.05;;;10.10;99.90;;;;;;5033043;28;20088;-82
2023/01/02 05:16:02;;;;;;;88.35;28.08;;;10.10;99.90;;;;;;5033301;28;20049;-82
2023/01/02 05:18:28;;;;;;;82.47;25.90;;;10.00;99.90;;;;;;5032599;28;20047;-82
2023/01/02 05:23:47;;;;;;;74.97;25.08;;;10.10;99.90;;;;;;5033177;28;20128;-82
2023/01/02 05:23:57;;;;;;;70.43;22.60;;;10.00;99.90;;;;;;5032940;28;20052;-82
2023/01/02 05:26:22;;;;;;;64.95;21.35;;;10.10;99.90;;;;;;5033407;28;20073;-82
2023/01/02 05:28:50;;;;;;;69.85;21.83;;;10.00;99.90;;;;;;5031789;28;20397;-82
2023/01/02 05:31:16;;;;;;;64.65;21.65;;;10.10;99.90;;;;;;5032123;28;20049;-82
2023/01/02 05:33:41;;;;;;;61.03;21.95;;;10.10;99.90;;;;;;5031891;28;20362;-82
2023/01/02 05:36:08;;;;;;;64.60;21.25;;;10.00;99.90;;;;;;5031894;28;20128;-81
2023/01/02 05:38:35;;;;;;;64.38;18.92;;;10.00;99.90;;;;;;5031900;28;20180;-82
2023/01/02 05:41:05;;;;;;;60.13;21.05;;;10.00;99.90;;;;;;5035667;28;20046;-81
2023/01/02 05:43:35;;;;;;;52.88;20.20;;;10.10;99.90;;;;;;5035469;28;20052;-81
2023/01/02 05:46:11;;;;;;;59.50;21.05;;;10.00;99.90;;;;;;5035486;28;20045;-81
2023/01/02 05:48:38;;;;;;;62.05;21.42;;;10.10;99.90;;;;;;5035464;28;20493;-82
2023/01/02 05:51:05;;;;;;;58.05;20.75;;;10.00;99.90;;;;;;5035328;28;20428;-81
2023/01/02 05:53:31;;;;;;;54.63;19.38;;;10.10;99.90;;;;;;5036649;28;20120;-81
2023/01/02 05:56:07;;;;;;;55.60;15.15;;;10.00;99.90;;;;;;5036566;28;20037;-82
2023/01/02 05:58:38;;;;;;;59.47;17.23;;;9.80;99.90;;;;;;5035197;28;20053;-82
2023/01/02 06:01:14;;;;;;;58.35;13.02;;;9.70;99.90;;;;;;5035641;28;20041;-82
2023/01/02 06:03:54;;;;;;;51.65;11.82;;;9.50;99.90;;;;;;5036447;28;20060;-82
2023/01/02 06:06:22;;;;;;;48.08;9.32;;;9.40;99.90;;;;;;5036341;28;20037;-82
2023/01/02 06:08:48;;;;;;;52.15;9.65;;;9.30;99.90;;;;;;5036387;28;20045;-82
2023/01/02 06:11:14;;;;;;;30.85;6.45;;;9.30;99.90;;;;;;5035328;28;20041;-81
2023/01/02 06:13:39;;;;;;;35.55;6.28;;;9.20;99.90;;;;;;5036000;28;20076;-81
2023/01/02 06:16:07;;;;;;;30.52;6.88;;;9.10;99.90;;;;;;5034887;28;20119;-81
2023/01/02 06:18:35;;;;;;;28.17;4.75;;;9.00;99.90;;;;;;5034976;28;20128;-81
2023/01/02 06:21:02;;;;;;;17.25;3.78;;;9.00;99.90;;;;;;5035061;28;20099;-81
2023/01/02 06:23:28;;;;;;;19.85;4.07;;;8.80;99.90;;;;;;5036235;28;20049;-81
2023/01/02 06:25:54;;;;;;;23.67;3.92;;;8.90;99.90;;;;;;5036061;28;20532;-81
2023/01/02 06:28:21;;;;;;;17.90;2.88;;;8.70;99.90;;;;;;5035835;28;20084;-81
2023/01/02 06:30:46;;;;;;;12.35;2.58;;;8.70;99.90;;;;;;5034913;28;20552;-81
2023/01/02 06:33:12;;;;;;;13.25;2.10;;;8.60;99.90;;;;;;5035910;28;20129;-81
2023/01/02 06:35:38;;;;;;;7.75;1.30;;;8.60;99.90;;;;;;5034755;28;20094;-81
2023/01/02 06:38:03;;;;;;;10.50;1.42;;;8.70;99.90;;;;;;5035727;28;20421;-81
2023/01/02 06:40:29;;;;;;;8.48;1.50;;;8.70;99.90;;;;;;5035948;28;20099;-81
2023/01/02 06:42:55;;;;;;;6.15;1.88;;;8.70;99.90;;;;;;5034445;28;20106;-81
2023/01/02 06:45:22;;;;;;;13.57;2.15;;;8.60;99.90;;;;;;5034080;28;20140;-81
2023/01/02 06:47:54;;;;;;;8.60;1.80;;;8.60;99.90;;;;;;5035428;28;20489;-81
2023/01/02 06:50:19;;;;;;;21.20;1.97;;;8.50;99.90;;;;;;5034029;28;20042;-81
2023/01/02 06:52:45;;;;;;;9.07;1.33;;;8.60;99.90;;;;;;5033928;28;20056;-82
2023/01/02 06:55:11;;;;;;;13.95;1.58;;;8.60;99.90;;;;;;5035418;28;20040;-82
2023/01/02 06:57:36;;;;;;;9.52;1.92;;;8.60;99.90;;;;;;5033871;28;20112;-82
2023/01/02 07:00:03;;;;;;;11.10;1.90;;;8.40;99.90;;;;;;5033970;28;20559;-82
2023/01/02 07:02:28;;;;;;;8.98;1.40;;;8.40;99.90;;;;;;5034048;28;20508;-81
2023/01/02 07:04:54;;;;;;;13.82;1.60;;;8.30;99.90;;;;;;5035225;28;20037;-82
2023/01/02 07:07:19;;;;;;;14.20;1.75;;;8.30;99.90;;;;;;5033806;28;20042;-81
2023/01/02 07:09:45;;;;;;;13.55;2.28;;;8.40;99.90;;;;;;5035117;28;20095;-81
2023/01/02 07:12:11;;;;;;;19.92;2.72;;;8.30;99.90;;;;;;5033819;28;20050;-81
2023/01/02 07:14:36;;;;;;;16.73;3.05;;;8.30;99.90;;;;;;5034657;28;20095;-81
2023/01/02 07:17:02;;;;;;;16.85;2.58;;;8.20;99.90;;;;;;5034847;28;20045;-81
2023/01/02 07:19:27;;;;;;;14.85;2.00;;;8.10;99.90;;;;;;5033646;28;20049;-82
2023/01/02 07:21:53;;;;;;;15.25;2.05;;;8.30;99.90;;;;;;5033585;28;20046;-81
2023/01/02 07:24:19;;;;;;;15.88;1.75;;;8.30;99.90;;;;;;5033865;28;20048;-81
2023/01/02 07:26:44;;;;;;;16.67;2.05;;;8.30;99.90;;;;;;5033571;28;20068;-81
2023/01/02 07:29:10;;;;;;;17.63;2.10;;;8.20;99.90;;;;;;5033592;28;20044;-82
2023/01/02 07:31:35;;;;;;;18.67;2.00;;;8.30;99.90;;;;;;5034790;28;20493;-81
2023/01/02 07:34:01;;;;;;;13.45;2.90;;;8.30;99.90;;;;;;5033372;28;20100;-81
2023/01/02 07:36:27;;;;;;;25.08;3.55;;;8.30;99.90;;;;;;5033333;28;20060;-81
2023/01/02 07:38:54;;;;;;;25.30;4.65;;;8.30;99.90;;;;;;5033351;28;20042;-81
2023/01/02 07:41:22;;;;;;;24.58;4.10;;;8.20;99.90;;;;;;5034549;28;20053;-81
2023/01/02 07:43:49;;;;;;;16.02;3.00;;;8.20;99.90;;;;;;5033007;28;20042;-81
2023/01/02 07:46:16;;;;;;;12.80;2.08;;;8.10;99.90;;;;;;5033041;28;20069;-81
2023/01/02 07:48:43;;;;;;;14.68;2.83;;;8.30;99.90;;;;;;5034345;28;20477;-81
2023/01/02 07:51:09;;;;;;;12.10;2.08;;;8.10;99.90;;;;;;5034335;28;20061;-81
2023/01/02 07:53:35;;;;;;;14.48;2.22;;;8.20;99.90;;;;;;5033090;28;20042;-81
2023/01/02 07:56:01;;;;;;;18.33;2.80;;;8.10;99.90;;;;;;5033102;28;20060;-81
2023/01/02 07:58:28;;;;;;;14.43;2.30;;;8.20;99.90;;;;;;5032726;28;20049;-81
2023/01/02 08:00:54;;;;;;;15.25;2.03;;;8.20;99.90;;;;;;5032649;28;20132;-81
2023/01/02 08:03:20;;;;;;;21.70;1.95;;;8.00;99.90;;;;;;5032041;28;20500;-81
2023/01/02 08:05:46;;;;;;;12.23;1.75;;;8.20;99.90;;;;;;5032729;28;20052;-81
2023/01/02 08:08:12;;;;;;;21.05;2.17;;;8.10;99.90;;;;;;5031487;28;20045;-81
2023/01/02 08:10:38;;;;;;;7.72;1.85;;;8.20;99.90;;;;;;5031541;28;20037;-81
2023/01/02 08:13:04;;;;;;;13.10;2.08;;;8.10;99.90;;;;;;5032360;28;20049;-80
2023/01/02 08:15:30;;;;;;;17.45;3.38;;;8.20;99.90;;;;;;5032820;28;20107;-80
2023/01/02 08:17:57;;;;;;;15.38;2.00;;;8.10;99.90;;;;;;5032773;28;20045;-80
2023/01/02 08:20:25;;;;;;;12.23;1.42;;;8.00;99.90;;;;;;5033997;28;20072;-80
2023/01/02 08:22:51;;;;;;;14.27;2.00;;;8.20;99.90;;;;;;5032419;28;20107;-80
2023/01/02 08:25:17;;;;;;;10.50;1.38;;;8.10;99.90;;;;;;5032251;28;20124;-80
2023/01/02 08:27:44;;;;;;;8.20;1.27;;;8.10;99.90;;;;;;5032398;28;20136;-80
2023/01/02 08:30:10;;;;;;;10.82;1.85;;;8.10;99.90;;;;;;5032846;28;20050;-80
2023/01/02 08:32:39;;;;;;;13.48;1.75;;;8.00;99.90;;;;;;5032394;28;20037;-80
2023/01/02 08:35:06;;;;;;;9.93;2.10;;;8.10;99.90;;;;;;5032286;28;20042;-80
2023/01/02 08:37:32;;;;;;;13.85;3.17;;;8.10;99.90;;;;;;5032443;28;20171;-80
2023/01/02 08:39:58;;;;;;;14.15;2.38;;;8.00;99.90;;;;;;5032429;28;20042;-80
2023/01/02 08:42:24;;;;;;;14.63;2.75;;;8.10;99.90;;;;;;5032162;28;20049;-80
2023/01/02 08:44:49;;;;;;;15.25;1.90;;;8.10;99.90;;;;;;5032100;28;20049;-80
2023/01/02 08:47:15;;;;;;;12.45;2.08;;;8.10;99.90;;;;;;5033650;28;20042;-80
2023/01/02 08:49:41;;;;;;;8.48;1.27;;;8.10;99.90;;;;;;5032098;28;20045;-80
2023/01/02 08:52:07;;;;;;;13.57;1.77;;;8.00;99.90;;;;;;5033316;28;20073;-80
2023/01/02 08:54:33;;;;;;;18.48;2.03;;;8.10;99.90;;;;;;5032084;28;20049;-81
2023/01/02 08:56:58;;;;;;;10.02;1.45;;;8.10;99.90;;;;;;5032561;28;20125;-80
2023/01/02 08:59:24;;;;;;;9.35;1.35;;;8.10;99.90;;;;;;5023304;28;20141;-80
2023/01/02 09:01:51;;;;;;;15.90;1.88;;;8.10;99.90;;;;;;5013658;28;20125;-81
2023/01/02 09:04:17;;;;;;;6.25;1.60;;;8.00;99.90;;;;;;5012311;28;20038;-80
2023/01/02 09:06:43;;;;;;;14.70;1.42;;;8.10;99.90;;;;;;5012018;28;20064;-80
2023/01/02 09:09:10;;;;;;;11.50;2.00;;;8.10;99.90;;;;;;5012227;28;20394;-76
2023/01/02 09:11:43;;;;;;;20.85;3.47;;;8.00;99.90;;;;;;5012021;28;20042;-80
2023/01/02 09:14:08;;;;;;;12.55;3.25;;;8.10;99.90;;;;;;5012798;28;20490;-81
2023/01/02 09:16:34;;;;;;;13.27;2.80;;;8.20;99.90;;;;;;5015903;28;20056;-80
2023/01/02 09:19:01;;;;;;;19.70;3.20;;;8.10;99.90;;;;;;5017412;28;20041;-81
2023/01/02 09:21:27;;;;;;;21.02;3.20;;;8.00;99.90;;;;;;5017204;28;20099;-80
2023/01/02 09:23:53;;;;;;;18.95;3.35;;;8.10;99.90;;;;;;5017212;28;20383;-80
2023/01/02 09:26:19;;;;;;;14.70;3.95;;;8.20;99.90;;;;;;5017234;28;20145;-80
2023/01/02 09:28:45;;;;;;;11.75;4.03;;;8.10;99.90;;;;;;5017025;28;20502;-80
2023/01/02 09:31:13;;;;;;;12.45;3.10;;;8.10;99.90;;;;;;5015678;28;20128;-81
2023/01/02 09:33:41;;;;;;;15.30;3.80;;;8.20;99.90;;;;;;5015592;28;20092;-80
2023/01/02 09:36:09;;;;;;;16.73;4.00;;;8.20;99.90;;;;;;5015732;28;20097;-80
2023/01/02 09:38:35;;;;;;;20.77;4.50;;;8.10;99.90;;;;;;5017018;28;20124;-81
2023/01/02 09:41:09;;;;;;;16.65;4.28;;;8.10;99.90;;;;;;5016964;28;20073;-82
2023/01/02 09:43:35;;;;;;;20.70;4.65;;;8.20;99.90;;;;;;5015446;28;20117;-81
2023/01/02 09:46:03;;;;;;;17.45;4.10;;;8.20;99.90;;;;;;5015493;28;20180;-81
2023/01/02 09:48:33;;;;;;;15.82;5.10;;;8.20;99.90;;;;;;5015489;28;20136;-81
2023/01/02 09:51:01;;;;;;;15.65;3.80;;;8.10;99.90;;;;;;5016669;28;20108;-81
2023/01/02 09:53:27;;;;;;;15.90;3.45;;;8.20;99.90;;;;;;5015244;28;20053;-82
2023/01/02 09:56:15;;;;;;;13.07;3.13;;;8.40;99.90;;;;;;5015168;28;20046;-81
2023/01/02 09:59:00;;;;;;;13.65;3.10;;;8.40;99.90;;;;;;5014829;28;20080;-86
2023/01/02 10:01:51;;;;;;;13.35;2.63;;;8.40;99.90;;;;;;5014968;28;20049;-83
2023/01/02 10:04:31;;;;;;;12.38;2.47;;;8.40;99.90;;;;;;5015243;28;20057;-83
2023/01/02 10:07:28;;;;;;;11.52;3.15;;;8.30;99.90;;;;;;5015064;28;20054;-84
2023/01/02 10:10:06;;;;;;;13.13;2.72;;;8.30;99.90;;;;;;5015212;28;20053;-80
2023/01/02 10:12:57;;;;;;;16.02;4.20;;;8.40;99.90;;;;;;5014838;28;20124;-81
2023/01/02 10:15:26;;;;;;;9.95;2.53;;;8.40;99.90;;;;;;5014754;28;20104;-82
2023/01/02 10:17:56;;;;;;;16.08;4.18;;;8.30;99.90;;;;;;5016257;28;20042;-80
2023/01/02 10:20:29;;;;;;;10.63;2.60;;;8.20;99.90;;;;;;5014779;28;20137;-86
2023/01/02 10:23:09;;;;;;;8.88;2.30;;;8.40;99.90;;;;;;5014958;28;20077;-82
2023/01/02 10:25:51;;;;;;;11.93;2.17;;;8.40;99.90;;;;;;5015192;28;20080;-82
2023/01/02 10:28:42;;;;;;;11.43;1.98;;;8.40;99.90;;;;;;5014828;28;20124;-83
2023/01/02 10:31:21;;;;;;;8.95;2.15;;;8.30;99.90;;;;;;5014816;28;20050;-82
2023/01/02 10:33:57;;;;;;;9.05;2.90;;;8.30;99.90;;;;;;5014739;28;20046;-81
2023/01/02 10:36:25;;;;;;;7.80;2.47;;;8.30;99.90;;;;;;5015541;28;20050;-81
2023/01/02 10:39:15;;;;;;;12.73;3.03;;;8.30;99.90;;;;;;5014415;28;20125;-82
2023/01/02 10:41:42;;;;;;;14.25;2.80;;;8.30;99.90;;;;;;5006552;28;20064;-83
2023/01/02 10:44:29;;;;;;;13.32;2.92;;;8.40;99.90;;;;;;5014512;28;20046;-83
2023/01/02 10:46:56;;;;;;;9.95;2.70;;;8.30;99.90;;;;;;5014091;28;20167;-82
2023/01/02 10:49:24;;;;;;;18.13;3.28;;;8.30;99.90;;;;;;5015577;28;20038;-81
2023/01/02 10:52:00;;;;;;;17.50;3.45;;;8.40;99.90;;;;;;5014321;28;20053;-83
2023/01/02 10:54:26;;;;;;;16.88;4.03;;;8.30;99.90;;;;;;5014358;28;20046;-83
2023/01/02 10:56:53;;;;;;;16.15;3.50;;;8.40;99.90;;;;;;5014007;28;20073;-83
2023/01/02 10:59:27;;;;;;;13.98;4.38;;;8.40;99.90;;;;;;5014192;28;20054;-83
2023/01/02 11:01:58;;;;;;;20.63;5.57;;;8.50;99.90;;;;;;5014242;28;20049;-84
2023/01/02 11:04:26;;;;;;;23.05;6.60;;;8.50;99.90;;;;;;5015349;28;20133;-84
2023/01/02 11:07:00;;;;;;;20.90;5.13;;;8.40;99.90;;;;;;5013833;28;20088;-84
2023/01/02 11:09:29;;;;;;;16.65;4.65;;;8.50;99.90;;;;;;5014213;28;20037;-82
2023/01/02 11:12:19;;;;;;;18.63;4.72;;;8.50;99.90;;;;;;5014013;28;20497;-82
2023/01/02 11:14:45;;;;;;;16.83;4.28;;;8.60;99.90;;;;;;5013022;28;20050;-81
2023/01/02 11:17:20;;;;;;;16.35;3.72;;;8.80;99.90;;;;;;5015078;28;20049;-82
2023/01/02 11:19:49;;;;;;;14.88;3.58;;;8.80;99.90;;;;;;5013573;28;20046;-81
2023/01/02 11:22:18;;;;;;;14.02;3.42;;;8.70;99.90;;;;;;5013480;28;20100;-83
2023/01/02 11:25:00;;;;;;;15.57;3.67;;;8.70;99.90;;;;;;5013502;28;20077;-81
2023/01/02 11:27:31;;;;;;;17.92;4.10;;;8.80;99.90;;;;;;5013462;28;20041;-83
2023/01/02 11:29:56;;;;;;;16.20;3.10;;;8.70;99.90;;;;;;5013401;28;20049;-82
2023/01/02 11:32:28;;;;;;;11.68;3.08;;;8.80;99.90;;;;;;5013691;28;20045;-82
2023/01/02 11:34:57;;;;;;;12.98;2.80;;;8.80;99.90;;;;;;5013604;28;20053;-82
2023/01/02 11:37:23;;;;;;;21.73;3.03;;;8.90;99.90;;;;;;5013186;28;20077;-82
2023/01/02 11:40:05;;;;;;;16.00;2.85;;;8.90;99.90;;;;;;5013476;28;20077;-82
2023/01/02 11:45:23;;;;;;;20.93;2.83;;;8.80;99.90;;;;;;5014481;28;20116;-81
2023/01/02 11:48:03;;;;;;;13.30;2.47;;;8.80;99.90;;;;;;5013402;28;20054;-81
2023/01/02 11:50:32;;;;;;;11.93;2.67;;;8.70;99.90;;;;;;5014262;28;20482;-82
2023/01/02 11:53:01;;;;;;;7.63;2.00;;;8.90;99.90;;;;;;5014572;28;20050;-81
2023/01/02 11:55:54;;;;;;;16.98;2.00;;;8.90;99.90;;;;;;5014292;28;20524;-83
2023/01/02 11:58:23;;;;;;;;;;;8.90;99.90;;;;;;5013371;28;20580;-81
2023/01/02 12:00:54;;;;;;;14.13;2.83;;;8.70;99.90;;;;;;5012890;28;19929;-81
2023/01/02 12:03:25;;;;;;;18.20;3.75;;;8.80;99.90;;;;;;5014184;28;20463;-81
2023/01/02 12:06:15;;;;;;;10.88;2.65;;;8.90;99.90;;;;;;5012681;28;20104;-81
2023/01/02 12:09:04;;;;;;;20.98;2.67;;;8.80;99.90;;;;;;5012817;28;20050;-81
2023/01/02 12:11:51;;;;;;;18.88;2.10;;;8.80;99.90;;;;;;5013021;28;20405;-81
2023/01/02 12:14:42;;;;;;;15.10;2.20;;;8.90;99.90;;;;;;5012401;28;20053;-82
2023/01/02 12:17:38;;;;;;;18.90;3.33;;;8.80;99.90;;;;;;5013518;28;20116;-81
2023/01/02 12:20:23;;;;;;;20.75;3.22;;;8.80;99.90;;;;;;5014112;28;20056;-81
2023/01/02 12:22:48;;;;;;;18.52;3.00;;;8.80;99.90;;;;;;5012807;28;20050;-81
2023/01/02 12:25:26;;;;;;;19.65;2.50;;;8.70;99.90;;;;;;5012465;28;20134;-81
2023/01/02 12:28:20;;;;;;;19.13;3.15;;;8.90;99.90;;;;;;5014033;28;20050;-81
2023/01/02 12:31:30;;;;;;;14.40;2.88;;;8.70;99.90;;;;;;5012693;28;20053;-80
2023/01/02 12:34:30;;;;;;;21.58;2.90;;;8.70;99.90;;;;;;5012884;28;20046;-81
2023/01/02 12:37:11;;;;;;;20.58;3.03;;;8.90;99.90;;;;;;5013734;28;20397;-84
2023/01/02 12:39:59;;;;;;;24.23;3.63;;;8.80;99.90;;;;;;5012667;28;20056;-89
2023/01/02 12:42:30;;;;;;;28.38;3.67;;;8.90;99.90;;;;;;5012519;28;20057;-82
2023/01/02 12:44:57;;;;;;;16.33;2.83;;;9.00;99.90;;;;;;5012500;28;20054;-82
2023/01/02 12:47:45;;;;;;;17.58;2.78;;;9.00;99.90;;;;;;5012391;28;20108;-86
2023/01/02 12:50:50;;;;;;;23.60;3.10;;;9.00;99.90;;;;;;5011940;28;20117;-83
2023/01/02 12:53:41;;;;;;;28.52;3.83;;;9.00;99.90;;;;;;5002181;28;20062;-88
2023/01/02 12:56:14;;;;;;;21.10;3.50;;;9.00;99.90;;;;;;5012577;28;20046;-87
2023/01/02 12:59:01;;;;;;;16.88;3.25;;;9.00;99.90;;;;;;5012414;28;20145;-82
2023/01/02 13:01:46;;;;;;;31.90;4.63;;;9.00;99.90;;;;;;5012377;28;20054;-81
2023/01/02 13:04:24;;;;;;;21.92;4.15;;;9.00;99.90;;;;;;5012371;28;20042;-82
2023/01/02 13:06:58;;;;;;;25.60;4.65;;;8.90;99.90;;;;;;5012297;28;20050;-82
2023/01/02 13:09:36;;;;;;;28.90;4.55;;;9.00;99.90;;;;;;5012596;28;20521;-82